sensor_id;sensor_type;location;lat;lon;timestamp;temperature;humidity
52709;DHT22;38606;52.986;6.980;2022-07-23T00:00:53;15.40;99.90
52709;DHT22;38606;52.986;6.980;2022-07-23T00:03:19;15.50;99.90
52709;DHT22;38606;52.986;6.980;2022-07-23T00:05:44;15.70;99.90
52709;DHT22;38606;52.986;6.980;2022-07-23T00:08:10;15.70;99.90
52709;DHT22;38606;52.986;6.980;2022-07-23T00:10:36;16.50;99.90
52709;DHT22;38606;52.986;6.980;2022-07-23T00:13:02;15.60;99.90
52709;DHT22;38606;52.986;6.980;2022-07-23T00:15:27;15.70;99.90
52709;DHT22;38606;52.986;6.980;2022-07-23T00:17:53;15.70;99.90
52709;DHT22;38606;52.986;6.980;2022-07-23T00:20:19;15.80;99.90
52709;DHT22;38606;52.986;6.980;2022-07-23T00:22:52;15.50;99.90
52709;DHT22;38606;52.986;6.980;2022-07-23T00:25:19;15.50;99.90
52709;DHT22;38606;52.986;6.980;2022-07-23T00:27:45;15.50;99.90
52709;DHT22;38606;52.986;6.980;2022-07-23T00:30:11;15.60;99.90
52709;DHT22;38606;52.986;6.980;2022-07-23T00:32:51;15.60;99.90
52709;DHT22;38606;52.986;6.980;2022-07-23T00:35:20;15.70;99.90
52709;DHT22;38606;52.986;6.980;2022-07-23T00:37:45;15.50;99.90
52709;DHT22;38606;52.986;6.980;2022-07-23T00:40:11;16.50;99.90
52709;DHT22;38606;52.986;6.980;2022-07-23T00:42:37;16.50;99.90
52709;DHT22;38606;52.986;6.980;2022-07-23T00:45:04;15.60;99.90
52709;DHT22;38606;52.986;6.980;2022-07-23T00:47:29;15.40;99.90
52709;DHT22;38606;52.986;6.980;2022-07-23T00:49:55;15.50;99.90
52709;DHT22;38606;52.986;6.980;2022-07-23T00:52:21;16.10;99.90
52709;DHT22;38606;52.986;6.980;2022-07-23T00:54:47;15.80;99.90
52709;DHT22;38606;52.986;6.980;2022-07-23T00:57:13;15.30;99.90
52709;DHT22;38606;52.986;6.980;2022-07-23T00:59:40;15.50;99.90
52709;DHT22;38606;52.986;6.980;2022-07-23T01:02:06;17.00;99.90
52709;DHT22;38606;52.986;6.980;2022-07-23T01:04:31;15.40;99.90
52709;DHT22;38606;52.986;6.980;2022-07-23T01:06:57;15.50;99.90
52709;DHT22;38606;52.986;6.980;2022-07-23T01:09:23;15.20;99.90
52709;DHT22;38606;52.986;6.980;2022-07-23T01:11:50;15.10;99.90
52709;DHT22;38606;52.986;6.980;2022-07-23T01:14:18;15.80;99.90
52709;DHT22;38606;52.986;6.980;2022-07-23T01:16:46;15.00;99.90
52709;DHT22;38606;52.986;6.980;2022-07-23T01:19:12;15.10;99.90
52709;DHT22;38606;52.986;6.980;2022-07-23T01:21:42;14.90;99.90
52709;DHT22;38606;52.986;6.980;2022-07-23T01:24:08;14.90;99.90
52709;DHT22;38606;52.986;6.980;2022-07-23T01:26:39;14.90;99.90
52709;DHT22;38606;52.986;6.980;2022-07-23T01:29:05;15.10;99.90
52709;DHT22;38606;52.986;6.980;2022-07-23T01:31:31;15.10;99.90
52709;DHT22;38606;52.986;6.980;2022-07-23T01:33:57;14.80;99.90
52709;DHT22;38606;52.986;6.980;2022-07-23T01:36:23;14.90;99.90
52709;DHT22;38606;52.986;6.980;2022-07-23T01:38:49;15.10;99.90
52709;DHT22;38606;52.986;6.980;2022-07-23T01:41:15;14.80;99.90
52709;DHT22;38606;52.986;6.980;2022-07-23T01:43:41;14.70;99.90
52709;DHT22;38606;52.986;6.980;2022-07-23T01:46:06;15.50;99.90
52709;DHT22;38606;52.986;6.980;2022-07-23T01:48:32;14.60;99.90
52709;DHT22;38606;52.986;6.980;2022-07-23T01:50:58;14.70;99.90
52709;DHT22;38606;52.986;6.980;2022-07-23T01:53:24;14.60;99.90
52709;DHT22;38606;52.986;6.980;2022-07-23T01:55:49;14.50;99.90
52709;DHT22;38606;52.986;6.980;2022-07-23T01:58:15;14.60;99.90
52709;DHT22;38606;52.986;6.980;2022-07-23T02:00:41;14.60;99.90
52709;DHT22;38606;52.986;6.980;2022-07-23T02:03:06;14.50;99.90
52709;DHT22;38606;52.986;6.980;2022-07-23T02:05:32;13.00;99.90
52709;DHT22;38606;52.986;6.980;2022-07-23T02:07:59;14.40;99.90
52709;DHT22;38606;52.986;6.980;2022-07-23T02:10:26;14.30;99.90
52709;DHT22;38606;52.986;6.980;2022-07-23T02:12:52;14.80;99.90
52709;DHT22;38606;52.986;6.980;2022-07-23T02:15:17;15.10;99.90
52709;DHT22;38606;52.986;6.980;2022-07-23T02:17:43;14.10;99.90
52709;DHT22;38606;52.986;6.980;2022-07-23T02:20:10;14.30;99.90
52709;DHT22;38606;52.986;6.980;2022-07-23T02:22:36;14.00;99.90
52709;DHT22;38606;52.986;6.980;2022-07-23T02:25:04;14.00;99.90
52709;DHT22;38606;52.986;6.980;2022-07-23T02:27:29;14.10;99.90
52709;DHT22;38606;52.986;6.980;2022-07-23T02:29:55;14.30;99.90
52709;DHT22;38606;52.986;6.980;2022-07-23T02:32:21;14.00;99.90
52709;DHT22;38606;52.986;6.980;2022-07-23T02:34:47;14.10;99.90
52709;DHT22;38606;52.986;6.980;2022-07-23T02:37:13;13.80;99.90
52709;DHT22;38606;52.986;6.980;2022-07-23T02:39:40;13.90;99.90
52709;DHT22;38606;52.986;6.980;2022-07-23T02:42:06;13.90;99.90
52709;DHT22;38606;52.986;6.980;2022-07-23T02:44:31;14.00;99.90
52709;DHT22;38606;52.986;6.980;2022-07-23T02:46:57;13.80;99.90
52709;DHT22;38606;52.986;6.980;2022-07-23T02:49:23;14.00;99.90
52709;DHT22;38606;52.986;6.980;2022-07-23T02:51:48;14.10;99.90
52709;DHT22;38606;52.986;6.980;2022-07-23T02:54:14;13.60;99.90
52709;DHT22;38606;52.986;6.980;2022-07-23T02:56:40;14.20;99.90
52709;DHT22;38606;52.986;6.980;2022-07-23T02:59:05;12.60;99.90
52709;DHT22;38606;52.986;6.980;2022-07-23T03:01:32;13.70;99.90
52709;DHT22;38606;52.986;6.980;2022-07-23T03:03:57;13.80;99.90
52709;DHT22;38606;52.986;6.980;2022-07-23T03:06:23;13.80;99.90
52709;DHT22;38606;52.986;6.980;2022-07-23T03:08:49;13.70;99.90
52709;DHT22;38606;52.986;6.980;2022-07-23T03:11:14;13.50;99.90
52709;DHT22;38606;52.986;6.980;2022-07-23T03:13:40;13.60;99.90
52709;DHT22;38606;52.986;6.980;2022-07-23T03:16:07;13.60;99.90
52709;DHT22;38606;52.986;6.980;2022-07-23T03:18:33;13.40;99.90
52709;DHT22;38606;52.986;6.980;2022-07-23T03:21:00;13.80;99.90
52709;DHT22;38606;52.986;6.980;2022-07-23T03:23:26;13.50;99.90
52709;DHT22;38606;52.986;6.980;2022-07-23T03:25:52;13.70;99.90
52709;DHT22;38606;52.986;6.980;2022-07-23T03:28:18;13.40;99.90
52709;DHT22;38606;52.986;6.980;2022-07-23T03:30:47;13.40;99.90
52709;DHT22;38606;52.986;6.980;2022-07-23T03:33:18;13.70;99.90
52709;DHT22;38606;52.986;6.980;2022-07-23T03:35:44;13.60;99.90
52709;DHT22;38606;52.986;6.980;2022-07-23T03:38:10;13.50;99.90
52709;DHT22;38606;52.986;6.980;2022-07-23T03:40:36;13.60;99.90
52709;DHT22;38606;52.986;6.980;2022-07-23T03:43:02;13.80;99.90
52709;DHT22;38606;52.986;6.980;2022-07-23T03:45:27;14.10;99.90
52709;DHT22;38606;52.986;6.980;2022-07-23T03:47:53;13.40;99.90
52709;DHT22;38606;52.986;6.980;2022-07-23T03:50:19;13.30;99.90
52709;DHT22;38606;52.986;6.980;2022-07-23T03:52:45;13.50;99.90
52709;DHT22;38606;52.986;6.980;2022-07-23T03:55:10;13.30;99.90
52709;DHT22;38606;52.986;6.980;2022-07-23T03:57:36;13.50;99.90
52709;DHT22;38606;52.986;6.980;2022-07-23T04:00:04;13.40;99.90
52709;DHT22;38606;52.986;6.980;2022-07-23T04:02:31;13.50;99.90
52709;DHT22;38606;52.986;6.980;2022-07-23T04:04:56;13.40;99.90
52709;DHT22;38606;52.986;6.980;2022-07-23T04:07:22;13.50;99.90
52709;DHT22;38606;52.986;6.980;2022-07-23T04:09:48;13.30;99.90
52709;DHT22;38606;52.986;6.980;2022-07-23T04:12:14;13.80;99.90
52709;DHT22;38606;52.986;6.980;2022-07-23T04:14:40;13.30;99.90
52709;DHT22;38606;52.986;6.980;2022-07-23T04:17:06;13.40;99.90
52709;DHT22;38606;52.986;6.980;2022-07-23T04:19:32;13.20;99.90
52709;DHT22;38606;52.986;6.980;2022-07-23T04:21:57;13.50;99.90
52709;DHT22;38606;52.986;6.980;2022-07-23T04:24:23;13.70;99.90
52709;DHT22;38606;52.986;6.980;2022-07-23T04:26:49;13.60;99.90
52709;DHT22;38606;52.986;6.980;2022-07-23T04:29:14;13.40;99.90
52709;DHT22;38606;52.986;6.980;2022-07-23T04:31:40;13.50;99.90
52709;DHT22;38606;52.986;6.980;2022-07-23T04:34:06;13.70;99.90
52709;DHT22;38606;52.986;6.980;2022-07-23T04:36:32;13.50;99.90
52709;DHT22;38606;52.986;6.980;2022-07-23T04:38:57;13.60;99.90
52709;DHT22;38606;52.986;6.980;2022-07-23T04:41:23;13.40;99.90
52709;DHT22;38606;52.986;6.980;2022-07-23T04:43:49;13.80;99.90
52709;DHT22;38606;52.986;6.980;2022-07-23T04:46:14;13.70;99.90
52709;DHT22;38606;52.986;6.980;2022-07-23T04:48:40;13.90;99.90
52709;DHT22;38606;52.986;6.980;2022-07-23T04:51:07;13.60;99.90
52709;DHT22;38606;52.986;6.980;2022-07-23T04:53:33;14.90;99.90
52709;DHT22;38606;52.986;6.980;2022-07-23T04:55:59;15.40;99.90
52709;DHT22;38606;52.986;6.980;2022-07-23T04:58:25;14.10;99.90
52709;DHT22;38606;52.986;6.980;2022-07-23T05:00:50;13.90;99.90
52709;DHT22;38606;52.986;6.980;2022-07-23T05:03:16;14.00;99.90
52709;DHT22;38606;52.986;6.980;2022-07-23T05:05:42;14.10;99.90
52709;DHT22;38606;52.986;6.980;2022-07-23T05:08:08;14.30;99.90
52709;DHT22;38606;52.986;6.980;2022-07-23T05:10:34;14.00;99.90
52709;DHT22;38606;52.986;6.980;2022-07-23T05:13:00;14.50;99.90
52709;DHT22;38606;52.986;6.980;2022-07-23T05:15:25;14.70;99.90
52709;DHT22;38606;52.986;6.980;2022-07-23T05:17:51;14.50;99.90
52709;DHT22;38606;52.986;6.980;2022-07-23T05:20:17;15.70;99.90
52709;DHT22;38606;52.986;6.980;2022-07-23T05:22:43;15.10;99.90
52709;DHT22;38606;52.986;6.980;2022-07-23T05:25:08;15.00;99.90
52709;DHT22;38606;52.986;6.980;2022-07-23T05:27:34;15.40;99.90
52709;DHT22;38606;52.986;6.980;2022-07-23T05:30:00;15.00;99.90
52709;DHT22;38606;52.986;6.980;2022-07-23T05:32:26;15.10;99.90
52709;DHT22;38606;52.986;6.980;2022-07-23T05:34:51;15.20;99.90
52709;DHT22;38606;52.986;6.980;2022-07-23T05:37:17;15.30;99.90
52709;DHT22;38606;52.986;6.980;2022-07-23T05:39:43;15.40;99.90
52709;DHT22;38606;52.986;6.980;2022-07-23T05:42:09;15.40;99.90
52709;DHT22;38606;52.986;6.980;2022-07-23T05:44:34;15.70;99.90
52709;DHT22;38606;52.986;6.980;2022-07-23T05:47:01;15.70;99.90
52709;DHT22;38606;52.986;6.980;2022-07-23T05:49:26;16.00;99.90
52709;DHT22;38606;52.986;6.980;2022-07-23T05:51:52;15.70;99.90
52709;DHT22;38606;52.986;6.980;2022-07-23T05:54:18;16.00;99.90
52709;DHT22;38606;52.986;6.980;2022-07-23T05:56:43;16.10;99.90
52709;DHT22;38606;52.986;6.980;2022-07-23T05:59:09;16.20;99.90
52709;DHT22;38606;52.986;6.980;2022-07-23T06:01:37;16.50;99.90
52709;DHT22;38606;52.986;6.980;2022-07-23T06:04:03;16.50;99.90
52709;DHT22;38606;52.986;6.980;2022-07-23T06:06:28;16.70;99.90
52709;DHT22;38606;52.986;6.980;2022-07-23T06:08:54;16.70;99.90
52709;DHT22;38606;52.986;6.980;2022-07-23T06:11:20;17.10;99.90
52709;DHT22;38606;52.986;6.980;2022-07-23T06:13:45;17.30;99.90
52709;DHT22;38606;52.986;6.980;2022-07-23T06:16:11;17.50;99.90
52709;DHT22;38606;52.986;6.980;2022-07-23T06:18:37;17.70;99.90
52709;DHT22;38606;52.986;6.980;2022-07-23T06:21:02;17.60;99.90
52709;DHT22;38606;52.986;6.980;2022-07-23T06:23:28;17.90;99.90
52709;DHT22;38606;52.986;6.980;2022-07-23T06:25:54;18.10;99.90
52709;DHT22;38606;52.986;6.980;2022-07-23T06:28:19;17.80;99.90
52709;DHT22;38606;52.986;6.980;2022-07-23T06:30:45;17.90;99.90
52709;DHT22;38606;52.986;6.980;2022-07-23T06:33:11;17.90;99.90
52709;DHT22;38606;52.986;6.980;2022-07-23T06:35:37;17.70;99.90
52709;DHT22;38606;52.986;6.980;2022-07-23T06:38:03;17.70;99.90
52709;DHT22;38606;52.986;6.980;2022-07-23T06:40:29;18.00;99.90
52709;DHT22;38606;52.986;6.980;2022-07-23T06:42:54;17.90;99.90
52709;DHT22;38606;52.986;6.980;2022-07-23T06:45:20;18.00;99.90
52709;DHT22;38606;52.986;6.980;2022-07-23T06:47:46;18.20;99.90
52709;DHT22;38606;52.986;6.980;2022-07-23T06:50:12;18.30;99.90
52709;DHT22;38606;52.986;6.980;2022-07-23T06:52:37;18.50;99.90
52709;DHT22;38606;52.986;6.980;2022-07-23T06:55:03;18.60;99.90
52709;DHT22;38606;52.986;6.980;2022-07-23T06:57:29;18.90;99.90
52709;DHT22;38606;52.986;6.980;2022-07-23T06:59:55;18.70;99.90
52709;DHT22;38606;52.986;6.980;2022-07-23T07:02:20;18.90;99.90
52709;DHT22;38606;52.986;6.980;2022-07-23T07:04:46;19.00;99.90
52709;DHT22;38606;52.986;6.980;2022-07-23T07:07:11;19.10;99.90
52709;DHT22;38606;52.986;6.980;2022-07-23T07:09:38;19.10;99.90
52709;DHT22;38606;52.986;6.980;2022-07-23T07:12:04;19.40;99.90
52709;DHT22;38606;52.986;6.980;2022-07-23T07:14:29;19.50;99.90
52709;DHT22;38606;52.986;6.980;2022-07-23T07:16:55;19.50;99.90
52709;DHT22;38606;52.986;6.980;2022-07-23T07:19:21;19.80;99.90
52709;DHT22;38606;52.986;6.980;2022-07-23T07:21:47;19.70;99.90
52709;DHT22;38606;52.986;6.980;2022-07-23T07:24:13;20.10;99.90
52709;DHT22;38606;52.986;6.980;2022-07-23T07:26:39;20.10;99.90
52709;DHT22;38606;52.986;6.980;2022-07-23T07:29:05;20.10;99.90
52709;DHT22;38606;52.986;6.980;2022-07-23T07:31:31;20.00;99.90
52709;DHT22;38606;52.986;6.980;2022-07-23T07:33:56;20.30;99.90
52709;DHT22;38606;52.986;6.980;2022-07-23T07:36:23;20.70;99.90
52709;DHT22;38606;52.986;6.980;2022-07-23T07:38:48;20.80;99.90
52709;DHT22;38606;52.986;6.980;2022-07-23T07:41:14;20.90;99.90
52709;DHT22;38606;52.986;6.980;2022-07-23T07:43:41;20.60;99.90
52709;DHT22;38606;52.986;6.980;2022-07-23T07:46:06;20.90;99.90
52709;DHT22;38606;52.986;6.980;2022-07-23T07:48:36;20.80;99.90
52709;DHT22;38606;52.986;6.980;2022-07-23T07:51:03;20.70;99.90
52709;DHT22;38606;52.986;6.980;2022-07-23T07:53:29;20.80;99.90
52709;DHT22;38606;52.986;6.980;2022-07-23T07:55:55;21.00;99.90
52709;DHT22;38606;52.986;6.980;2022-07-23T07:58:21;21.20;99.90
52709;DHT22;38606;52.986;6.980;2022-07-23T08:00:46;21.20;99.90
52709;DHT22;38606;52.986;6.980;2022-07-23T08:03:15;21.00;99.90
52709;DHT22;38606;52.986;6.980;2022-07-23T08:05:40;21.10;99.90
52709;DHT22;38606;52.986;6.980;2022-07-23T08:08:06;21.10;99.90
52709;DHT22;38606;52.986;6.980;2022-07-23T08:10:32;20.70;99.90
52709;DHT22;38606;52.986;6.980;2022-07-23T08:12:59;20.80;99.90
52709;DHT22;38606;52.986;6.980;2022-07-23T08:15:28;20.90;99.90
52709;DHT22;38606;52.986;6.980;2022-07-23T08:17:54;20.70;99.90
52709;DHT22;38606;52.986;6.980;2022-07-23T08:20:21;20.40;99.90
52709;DHT22;38606;52.986;6.980;2022-07-23T08:22:59;20.60;99.90
52709;DHT22;38606;52.986;6.980;2022-07-23T08:25:29;20.80;99.90
52709;DHT22;38606;52.986;6.980;2022-07-23T08:27:55;20.60;99.90
52709;DHT22;38606;52.986;6.980;2022-07-23T08:30:21;20.90;99.90
52709;DHT22;38606;52.986;6.980;2022-07-23T08:32:51;20.90;99.90
52709;DHT22;38606;52.986;6.980;2022-07-23T08:35:21;21.00;99.90
52709;DHT22;38606;52.986;6.980;2022-07-23T08:37:47;21.00;99.90
52709;DHT22;38606;52.986;6.980;2022-07-23T08:40:13;21.20;99.90
52709;DHT22;38606;52.986;6.980;2022-07-23T08:42:39;21.10;99.90
52709;DHT22;38606;52.986;6.980;2022-07-23T08:45:07;21.00;99.90
52709;DHT22;38606;52.986;6.980;2022-07-23T08:47:36;21.30;99.90
52709;DHT22;38606;52.986;6.980;2022-07-23T08:50:02;21.20;99.90
52709;DHT22;38606;52.986;6.980;2022-07-23T08:52:30;21.60;99.90
52709;DHT22;38606;52.986;6.980;2022-07-23T08:54:56;21.90;99.90
52709;DHT22;38606;52.986;6.980;2022-07-23T08:57:22;21.70;99.90
52709;DHT22;38606;52.986;6.980;2022-07-23T08:59:48;21.60;99.90
52709;DHT22;38606;52.986;6.980;2022-07-23T09:02:14;21.90;99.90
52709;DHT22;38606;52.986;6.980;2022-07-23T09:04:39;21.70;99.90
52709;DHT22;38606;52.986;6.980;2022-07-23T09:07:05;21.60;99.90
52709;DHT22;38606;52.986;6.980;2022-07-23T09:09:31;21.70;99.90
52709;DHT22;38606;52.986;6.980;2022-07-23T09:12:08;21.50;99.90
52709;DHT22;38606;52.986;6.980;2022-07-23T09:14:42;21.50;99.90
52709;DHT22;38606;52.986;6.980;2022-07-23T09:17:13;21.40;99.90
52709;DHT22;38606;52.986;6.980;2022-07-23T09:19:40;21.70;99.90
52709;DHT22;38606;52.986;6.980;2022-07-23T09:22:23;21.70;99.90
52709;DHT22;38606;52.986;6.980;2022-07-23T09:27:58;21.90;99.90
52709;DHT22;38606;52.986;6.980;2022-07-23T09:30:31;22.30;99.90
52709;DHT22;38606;52.986;6.980;2022-07-23T09:33:11;22.20;99.90
52709;DHT22;38606;52.986;6.980;2022-07-23T09:35:52;22.70;99.90
52709;DHT22;38606;52.986;6.980;2022-07-23T09:38:20;22.70;99.90
52709;DHT22;38606;52.986;6.980;2022-07-23T09:40:47;22.90;99.90
52709;DHT22;38606;52.986;6.980;2022-07-23T09:43:29;23.10;99.90
52709;DHT22;38606;52.986;6.980;2022-07-23T09:46:19;23.00;99.70
52709;DHT22;38606;52.986;6.980;2022-07-23T09:48:46;23.10;98.20
52709;DHT22;38606;52.986;6.980;2022-07-23T09:51:12;23.10;99.10
52709;DHT22;38606;52.986;6.980;2022-07-23T09:53:39;23.00;98.70
52709;DHT22;38606;52.986;6.980;2022-07-23T09:56:06;22.60;98.60
52709;DHT22;38606;52.986;6.980;2022-07-23T09:58:33;22.60;98.40
52709;DHT22;38606;52.986;6.980;2022-07-23T10:00:59;22.60;97.70
52709;DHT22;38606;52.986;6.980;2022-07-23T10:03:26;23.00;97.30
52709;DHT22;38606;52.986;6.980;2022-07-23T10:05:52;22.90;96.70
52709;DHT22;38606;52.986;6.980;2022-07-23T10:08:19;23.00;97.10
52709;DHT22;38606;52.986;6.980;2022-07-23T10:10:46;23.10;97.10
52709;DHT22;38606;52.986;6.980;2022-07-23T10:13:14;23.20;96.70
52709;DHT22;38606;52.986;6.980;2022-07-23T10:15:43;23.40;96.70
52709;DHT22;38606;52.986;6.980;2022-07-23T10:18:11;23.60;96.30
52709;DHT22;38606;52.986;6.980;2022-07-23T10:20:38;23.60;95.30
52709;DHT22;38606;52.986;6.980;2022-07-23T10:23:42;23.50;95.20
52709;DHT22;38606;52.986;6.980;2022-07-23T10:26:19;23.40;94.00
52709;DHT22;38606;52.986;6.980;2022-07-23T10:29:20;24.30;95.20
52709;DHT22;38606;52.986;6.980;2022-07-23T10:31:58;23.90;95.20
52709;DHT22;38606;52.986;6.980;2022-07-23T10:37:18;23.80;94.40
52709;DHT22;38606;52.986;6.980;2022-07-23T10:40:19;23.70;94.10
52709;DHT22;38606;52.986;6.980;2022-07-23T10:42:46;23.70;94.10
52709;DHT22;38606;52.986;6.980;2022-07-23T10:45:32;23.70;94.40
52709;DHT22;38606;52.986;6.980;2022-07-23T10:48:19;23.90;94.30
52709;DHT22;38606;52.986;6.980;2022-07-23T10:51:09;24.20;94.80
52709;DHT22;38606;52.986;6.980;2022-07-23T10:59:05;24.00;94.70
52709;DHT22;38606;52.986;6.980;2022-07-23T11:01:35;23.90;95.10
52709;DHT22;38606;52.986;6.980;2022-07-23T11:04:03;23.90;94.70
52709;DHT22;38606;52.986;6.980;2022-07-23T11:15:09;24.30;92.80
52709;DHT22;38606;52.986;6.980;2022-07-23T11:20:17;24.30;92.50
52709;DHT22;38606;52.986;6.980;2022-07-23T11:25:35;24.10;92.60
52709;DHT22;38606;52.986;6.980;2022-07-23T11:28:27;24.30;92.60
52709;DHT22;38606;52.986;6.980;2022-07-23T11:30:53;24.10;93.00
52709;DHT22;38606;52.986;6.980;2022-07-23T11:33:20;24.20;93.00
52709;DHT22;38606;52.986;6.980;2022-07-23T11:35:49;24.40;93.70
52709;DHT22;38606;52.986;6.980;2022-07-23T11:38:18;24.20;93.40
52709;DHT22;38606;52.986;6.980;2022-07-23T11:40:47;24.30;93.10
52709;DHT22;38606;52.986;6.980;2022-07-23T11:43:13;24.10;92.80
52709;DHT22;38606;52.986;6.980;2022-07-23T11:45:45;24.30;93.00
52709;DHT22;38606;52.986;6.980;2022-07-23T11:48:25;24.30;93.10
52709;DHT22;38606;52.986;6.980;2022-07-23T11:50:52;24.40;92.60
52709;DHT22;38606;52.986;6.980;2022-07-23T11:53:32;24.50;92.90
52709;DHT22;38606;52.986;6.980;2022-07-23T11:56:09;24.60;94.00
52709;DHT22;38606;52.986;6.980;2022-07-23T11:58:36;24.60;92.80
52709;DHT22;38606;52.986;6.980;2022-07-23T12:01:02;24.50;93.40
52709;DHT22;38606;52.986;6.980;2022-07-23T12:03:28;24.40;93.40
52709;DHT22;38606;52.986;6.980;2022-07-23T12:05:58;24.60;93.60
52709;DHT22;38606;52.986;6.980;2022-07-23T12:08:24;24.50;93.50
52709;DHT22;38606;52.986;6.980;2022-07-23T12:10:50;24.30;93.00
52709;DHT22;38606;52.986;6.980;2022-07-23T12:13:18;24.30;92.50
52709;DHT22;38606;52.986;6.980;2022-07-23T12:15:51;24.60;92.80
52709;DHT22;38606;52.986;6.980;2022-07-23T12:18:20;24.40;93.50
52709;DHT22;38606;52.986;6.980;2022-07-23T12:20:48;24.20;93.50
52709;DHT22;38606;52.986;6.980;2022-07-23T12:23:16;24.30;93.80
52709;DHT22;38606;52.986;6.980;2022-07-23T12:25:45;24.70;93.80
52709;DHT22;38606;52.986;6.980;2022-07-23T12:30:51;24.50;94.20
52709;DHT22;38606;52.986;6.980;2022-07-23T12:33:24;24.70;92.60
52709;DHT22;38606;52.986;6.980;2022-07-23T12:35:50;24.80;92.30
52709;DHT22;38606;52.986;6.980;2022-07-23T12:38:19;24.80;92.70
52709;DHT22;38606;52.986;6.980;2022-07-23T12:43:23;24.60;91.10
52709;DHT22;38606;52.986;6.980;2022-07-23T12:48:22;24.70;92.20
52709;DHT22;38606;52.986;6.980;2022-07-23T12:53:23;24.90;92.30
52709;DHT22;38606;52.986;6.980;2022-07-23T12:55:51;24.70;92.50
52709;DHT22;38606;52.986;6.980;2022-07-23T12:58:21;24.80;92.50
52709;DHT22;38606;52.986;6.980;2022-07-23T13:03:22;24.70;92.20
52709;DHT22;38606;52.986;6.980;2022-07-23T13:05:49;24.40;91.90
52709;DHT22;38606;52.986;6.980;2022-07-23T13:08:14;24.50;91.50
52709;DHT22;38606;52.986;6.980;2022-07-23T13:10:40;24.50;92.00
52709;DHT22;38606;52.986;6.980;2022-07-23T13:13:12;24.50;92.50
52709;DHT22;38606;52.986;6.980;2022-07-23T13:15:38;24.50;91.80
52709;DHT22;38606;52.986;6.980;2022-07-23T13:18:04;24.10;91.40
52709;DHT22;38606;52.986;6.980;2022-07-23T13:20:31;24.20;92.10
52709;DHT22;38606;52.986;6.980;2022-07-23T13:22:58;24.10;92.00
52709;DHT22;38606;52.986;6.980;2022-07-23T13:25:23;24.20;92.10
52709;DHT22;38606;52.986;6.980;2022-07-23T13:27:49;24.20;92.40
52709;DHT22;38606;52.986;6.980;2022-07-23T13:30:15;24.20;93.40
52709;DHT22;38606;52.986;6.980;2022-07-23T13:32:40;24.50;92.90
52709;DHT22;38606;52.986;6.980;2022-07-23T13:35:07;24.50;92.60
52709;DHT22;38606;52.986;6.980;2022-07-23T13:37:33;24.70;92.90
52709;DHT22;38606;52.986;6.980;2022-07-23T13:39:58;24.90;92.90
52709;DHT22;38606;52.986;6.980;2022-07-23T13:42:24;24.70;93.10
52709;DHT22;38606;52.986;6.980;2022-07-23T13:44:50;25.10;93.00
52709;DHT22;38606;52.986;6.980;2022-07-23T13:47:15;24.90;92.70
52709;DHT22;38606;52.986;6.980;2022-07-23T13:49:41;24.80;92.40
52709;DHT22;38606;52.986;6.980;2022-07-23T13:52:07;24.80;91.80
52709;DHT22;38606;52.986;6.980;2022-07-23T13:54:32;24.80;91.60
52709;DHT22;38606;52.986;6.980;2022-07-23T13:56:58;24.50;92.10
52709;DHT22;38606;52.986;6.980;2022-07-23T13:59:24;24.60;92.50
52709;DHT22;38606;52.986;6.980;2022-07-23T14:01:51;24.40;92.50
52709;DHT22;38606;52.986;6.980;2022-07-23T14:04:17;26.50;93.80
52709;DHT22;38606;52.986;6.980;2022-07-23T14:06:42;23.90;93.60
52709;DHT22;38606;52.986;6.980;2022-07-23T14:09:08;24.00;94.20
52709;DHT22;38606;52.986;6.980;2022-07-23T14:11:34;23.70;94.50
52709;DHT22;38606;52.986;6.980;2022-07-23T14:13:59;23.70;94.40
52709;DHT22;38606;52.986;6.980;2022-07-23T14:16:26;24.00;94.70
52709;DHT22;38606;52.986;6.980;2022-07-23T14:18:52;23.60;94.60
52709;DHT22;38606;52.986;6.980;2022-07-23T14:21:18;23.80;93.70
52709;DHT22;38606;52.986;6.980;2022-07-23T14:23:43;23.50;93.90
52709;DHT22;38606;52.986;6.980;2022-07-23T14:26:09;23.90;94.90
52709;DHT22;38606;52.986;6.980;2022-07-23T14:28:35;23.70;94.50
52709;DHT22;38606;52.986;6.980;2022-07-23T14:31:00;24.20;94.40
52709;DHT22;38606;52.986;6.980;2022-07-23T14:33:26;23.90;94.00
52709;DHT22;38606;52.986;6.980;2022-07-23T14:35:52;24.10;94.20
52709;DHT22;38606;52.986;6.980;2022-07-23T14:38:18;24.20;94.00
52709;DHT22;38606;52.986;6.980;2022-07-23T14:40:43;24.00;94.20
52709;DHT22;38606;52.986;6.980;2022-07-23T14:43:09;24.10;94.20
52709;DHT22;38606;52.986;6.980;2022-07-23T14:45:35;23.90;94.00
52709;DHT22;38606;52.986;6.980;2022-07-23T14:48:00;24.10;94.60
52709;DHT22;38606;52.986;6.980;2022-07-23T14:50:29;24.40;94.30
52709;DHT22;38606;52.986;6.980;2022-07-23T14:52:54;24.10;93.50
52709;DHT22;38606;52.986;6.980;2022-07-23T14:55:20;24.10;93.40
52709;DHT22;38606;52.986;6.980;2022-07-23T14:57:46;24.30;93.50
52709;DHT22;38606;52.986;6.980;2022-07-23T15:00:12;24.20;93.50
52709;DHT22;38606;52.986;6.980;2022-07-23T15:02:38;24.10;93.60
52709;DHT22;38606;52.986;6.980;2022-07-23T15:05:04;23.80;94.30
52709;DHT22;38606;52.986;6.980;2022-07-23T15:07:30;23.90;94.70
52709;DHT22;38606;52.986;6.980;2022-07-23T15:09:57;23.80;94.30
52709;DHT22;38606;52.986;6.980;2022-07-23T15:12:23;23.80;95.00
52709;DHT22;38606;52.986;6.980;2022-07-23T15:14:49;23.90;94.90
52709;DHT22;38606;52.986;6.980;2022-07-23T15:17:15;21.80;93.40
52709;DHT22;38606;52.986;6.980;2022-07-23T15:19:41;23.70;94.80
52709;DHT22;38606;52.986;6.980;2022-07-23T15:22:07;23.90;94.90
52709;DHT22;38606;52.986;6.980;2022-07-23T15:24:33;23.70;94.70
52709;DHT22;38606;52.986;6.980;2022-07-23T15:26:59;23.60;94.40
52709;DHT22;38606;52.986;6.980;2022-07-23T15:29:25;23.60;94.60
52709;DHT22;38606;52.986;6.980;2022-07-23T15:31:51;23.80;94.20
52709;DHT22;38606;52.986;6.980;2022-07-23T15:34:16;23.90;94.40
52709;DHT22;38606;52.986;6.980;2022-07-23T15:36:42;23.90;94.40
52709;DHT22;38606;52.986;6.980;2022-07-23T15:39:08;23.90;94.10
52709;DHT22;38606;52.986;6.980;2022-07-23T15:41:34;24.00;95.20
52709;DHT22;38606;52.986;6.980;2022-07-23T15:44:00;24.10;95.20
52709;DHT22;38606;52.986;6.980;2022-07-23T15:46:25;24.10;94.90
52709;DHT22;38606;52.986;6.980;2022-07-23T15:48:51;24.20;94.50
52709;DHT22;38606;52.986;6.980;2022-07-23T15:51:17;23.90;93.90
52709;DHT22;38606;52.986;6.980;2022-07-23T15:53:43;24.20;93.50
52709;DHT22;38606;52.986;6.980;2022-07-23T15:56:10;24.00;93.60
52709;DHT22;38606;52.986;6.980;2022-07-23T15:58:37;23.90;93.60
52709;DHT22;38606;52.986;6.980;2022-07-23T16:01:03;23.90;93.70
52709;DHT22;38606;52.986;6.980;2022-07-23T16:03:31;24.00;93.80
52709;DHT22;38606;52.986;6.980;2022-07-23T16:05:57;23.90;94.30
52709;DHT22;38606;52.986;6.980;2022-07-23T16:08:23;23.80;94.00